Time;durP1;ratioP1;P1;durP2;ratioP2;P2;SDS_P1;SDS_P2;PMS_P1;PMS_P2;Temp;Humidity;BMP_temperature;BMP_pressure;BME280_temperature;BME280_humidity;BME280_pressure;Samples;Min_cycle;Max_cycle;Signal;HPM_P1;HPM_P2
2022/10/02 00:00:24;;;;;;;2.90;2.70;;;10.20;99.90;;;;;;5059992;28;20432;-81
2022/10/02 00:03:17;;;;;;;3.60;3.00;;;10.10;99.90;;;;;;5057693;28;20472;-81
2022/10/02 00:06:15;;;;;;;4.83;4.17;;;10.20;99.90;;;;;;5060078;28;20422;-81
2022/10/02 00:09:02;;;;;;;4.40;3.50;;;10.10;99.90;;;;;;5060346;28;20449;-81
2022/10/02 00:11:50;;;;;;;3.60;3.30;;;10.20;99.90;;;;;;5060080;28;20889;-81
2022/10/02 00:14:39;;;;;;;5.70;3.63;;;10.20;99.90;;;;;;5041027;28;20440;-81
2022/10/02 00:17:36;;;;;;;4.63;4.30;;;10.30;99.90;;;;;;5064975;28;20406;-80
2022/10/02 00:20:29;;;;;;;3.83;3.50;;;10.20;99.90;;;;;;5080850;28;20377;-80
2022/10/02 00:23:20;;;;;;;3.70;3.40;;;10.20;99.90;;;;;;5081966;28;20386;-80
2022/10/02 00:26:13;;;;;;;5.40;4.40;;;10.20;99.90;;;;;;5076524;28;20463;-81
2022/10/02 00:29:29;;;;;;;4.23;3.83;;;10.30;99.90;;;;;;5063968;28;20440;-80
2022/10/02 00:32:39;;;;;;;6.97;3.27;;;10.20;99.90;;;;;;5063989;28;20394;-81
2022/10/02 00:35:44;;;;;;;4.53;4.10;;;10.10;99.90;;;;;;5063056;28;20390;-81
2022/10/02 00:38:46;;;;;;;6.53;4.23;;;10.20;99.90;;;;;;5062651;28;20377;-81
2022/10/02 00:42:09;;;;;;;3.80;3.40;;;10.20;99.90;;;;;;5070109;28;20389;-79
2022/10/02 00:45:26;;;;;;;4.27;3.90;;;10.20;99.90;;;;;;5062422;28;20382;-80
2022/10/02 00:48:29;;;;;;;4.47;3.70;;;10.20;99.90;;;;;;5070884;28;20450;-80
2022/10/02 00:51:30;;;;;;;4.23;3.83;;;10.10;99.90;;;;;;5062633;28;20804;-80
2022/10/02 00:54:45;;;;;;;4.33;3.87;;;10.10;99.90;;;;;;5053888;28;20435;-80
2022/10/02 00:58:00;;;;;;;4.47;4.07;;;10.00;99.90;;;;;;5062668;28;20794;-80
2022/10/02 01:00:58;;;;;;;5.07;3.67;;;10.00;99.90;;;;;;5062880;28;20444;-80
2022/10/02 01:03:52;;;;;;;8.23;3.87;;;9.90;99.90;;;;;;5062022;28;20456;-80
2022/10/02 01:06:36;;;;;;;4.10;3.70;;;9.90;99.90;;;;;;5062296;28;20402;-80
2022/10/02 01:09:22;;;;;;;3.53;3.20;;;10.00;99.90;;;;;;5061981;28;20425;-80
2022/10/02 01:12:07;;;;;;;6.50;4.97;;;10.10;99.90;;;;;;5062168;28;20465;-80
2022/10/02 01:14:51;;;;;;;4.30;3.80;;;10.00;99.90;;;;;;5062491;28;20470;-80
2022/10/02 01:17:36;;;;;;;8.10;4.63;;;10.10;99.90;;;;;;5062210;28;20406;-80
2022/10/02 01:20:35;;;;;;;7.60;6.60;;;10.10;99.90;;;;;;5034028;28;20379;-80
2022/10/02 01:23:41;;;;;;;4.17;3.80;;;10.10;99.90;;;;;;5041894;28;20910;-80
2022/10/02 01:26:25;;;;;;;5.30;4.90;;;10.00;99.90;;;;;;5041857;28;20747;-80
2022/10/02 01:29:10;;;;;;;3.30;3.10;;;10.00;99.90;;;;;;5040558;28;20400;-80
2022/10/02 01:31:55;;;;;;;4.90;4.23;;;9.90;99.90;;;;;;5041396;28;20887;-80
2022/10/02 01:34:40;;;;;;;4.23;3.93;;;9.90;99.90;;;;;;5040889;28;20748;-79
2022/10/02 01:37:28;;;;;;;5.83;4.10;;;9.80;99.90;;;;;;5040817;28;20386;-80
2022/10/02 01:40:27;;;;;;;3.37;3.17;;;9.90;99.90;;;;;;5040632;28;20988;-80
2022/10/02 01:43:19;;;;;;;5.60;2.97;;;9.90;99.90;;;;;;5040757;28;20398;-79
2022/10/02 01:46:26;;;;;;;10.50;3.47;;;9.90;99.90;;;;;;5041750;28;20410;-80
2022/10/02 01:49:37;;;;;;;3.40;3.10;;;9.90;99.90;;;;;;5027742;28;20441;-80
2022/10/02 01:52:39;;;;;;;4.10;3.60;;;10.00;99.90;;;;;;5041407;28;20375;-80
2022/10/02 01:56:00;;;;;;;3.97;3.37;;;10.00;99.90;;;;;;5042092;28;20763;-82
2022/10/02 01:59:02;;;;;;;10.10;4.80;;;10.10;99.90;;;;;;5042505;28;20407;-81
2022/10/02 02:02:06;;;;;;;4.27;3.60;;;10.10;99.90;;;;;;5041222;28;20374;-81
2022/10/02 02:05:09;;;;;;;6.40;3.67;;;10.10;99.90;;;;;;5038233;28;20473;-81
2022/10/02 02:08:10;;;;;;;8.03;3.40;;;10.10;99.90;;;;;;5040063;28;20867;-81
2022/10/02 02:11:14;;;;;;;3.83;3.37;;;10.20;99.90;;;;;;5040256;28;20398;-81
2022/10/02 02:14:06;;;;;;;5.57;4.30;;;10.20;99.90;;;;;;5040765;28;20415;-81
2022/10/02 02:16:59;;;;;;;6.07;3.83;;;10.30;99.90;;;;;;5041498;28;20434;-81
2022/10/02 02:20:03;;;;;;;5.27;3.90;;;10.30;99.90;;;;;;5042581;28;20390;-81
2022/10/02 02:22:50;;;;;;;3.60;3.40;;;10.30;99.90;;;;;;5040137;28;20378;-81
2022/10/02 02:25:39;;;;;;;3.77;3.47;;;10.30;99.90;;;;;;5039696;28;20399;-81
2022/10/02 02:28:26;;;;;;;4.47;4.07;;;10.20;99.90;;;;;;5041297;28;20439;-80
2022/10/02 02:31:18;;;;;;;6.27;3.90;;;10.20;99.90;;;;;;5041334;28;20390;-81
2022/10/02 02:34:09;;;;;;;5.60;3.10;;;10.30;99.90;;;;;;5040281;28;20775;-81
2022/10/02 02:37:00;;;;;;;4.63;4.13;;;10.40;99.90;;;;;;5039990;28;20450;-81
2022/10/02 02:39:56;;;;;;;4.00;3.60;;;10.30;99.90;;;;;;5039930;28;20492;-80
2022/10/02 02:42:45;;;;;;;3.80;3.47;;;10.30;99.90;;;;;;5040003;28;20440;-81
2022/10/02 02:45:36;;;;;;;4.60;3.33;;;10.30;99.90;;;;;;5041000;28;20391;-81
2022/10/02 02:48:26;;;;;;;3.43;3.20;;;10.20;99.90;;;;;;5040155;28;20446;-81
2022/10/02 02:51:19;;;;;;;3.63;3.23;;;10.20;99.90;;;;;;5040568;28;20468;-81
2022/10/02 02:54:12;;;;;;;4.30;4.03;;;10.20;99.90;;;;;;5040555;28;20425;-81
2022/10/02 02:56:59;;;;;;;5.90;3.77;;;10.10;99.90;;;;;;5039580;28;20825;-81
2022/10/02 02:59:48;;;;;;;2.90;2.70;;;10.20;99.90;;;;;;5040381;28;20387;-81
2022/10/02 03:02:32;;;;;;;4.80;3.90;;;10.20;99.90;;;;;;5040593;28;20497;-81
2022/10/02 03:05:18;;;;;;;4.93;3.03;;;10.10;99.90;;;;;;5040781;28;20883;-81
2022/10/02 03:08:06;;;;;;;7.87;3.90;;;10.20;99.90;;;;;;5040584;28;20489;-81
2022/10/02 03:11:15;;;;;;;6.13;3.70;;;10.20;99.90;;;;;;5040588;28;20463;-81
2022/10/02 03:14:25;;;;;;;4.70;3.10;;;10.20;99.90;;;;;;5039531;28;20487;-81
2022/10/02 03:17:27;;;;;;;3.33;3.13;;;10.30;99.90;;;;;;5040964;28;20467;-81
2022/10/02 03:20:25;;;;;;;4.47;3.53;;;10.30;99.90;;;;;;5040104;28;20788;-81
2022/10/02 03:23:24;;;;;;;7.17;3.50;;;10.40;99.90;;;;;;5040729;28;20434;-81
2022/10/02 03:26:20;;;;;;;4.07;3.77;;;10.30;99.90;;;;;;5043813;28;20969;-79
2022/10/02 03:29:17;;;;;;;4.53;3.70;;;10.30;99.90;;;;;;5048605;28;20446;-79
2022/10/02 03:32:03;;;;;;;4.87;4.47;;;10.30;99.90;;;;;;5049049;28;20389;-79
2022/10/02 03:34:48;;;;;;;5.17;4.67;;;10.30;99.90;;;;;;5049255;28;20459;-79
2022/10/02 03:37:33;;;;;;;9.30;3.97;;;10.30;99.90;;;;;;5040596;28;20395;-80
2022/10/02 03:40:23;;;;;;;4.13;3.47;;;10.30;99.90;;;;;;5039940;28;20859;-81
2022/10/02 03:43:15;;;;;;;5.17;3.97;;;10.20;99.90;;;;;;5038307;28;20390;-80
2022/10/02 03:46:00;;;;;;;3.53;3.23;;;10.30;99.90;;;;;;5042454;28;20417;-80
2022/10/02 03:48:45;;;;;;;3.90;3.57;;;10.20;99.90;;;;;;5059480;28;20533;-81
2022/10/02 03:51:29;;;;;;;3.40;3.17;;;10.20;99.90;;;;;;5054960;28;20386;-80
2022/10/02 03:54:17;;;;;;;5.80;3.90;;;10.20;99.90;;;;;;5049018;28;20518;-80
2022/10/02 03:57:06;;;;;;;4.50;3.03;;;10.20;99.90;;;;;;5057388;28;20440;-81
2022/10/02 04:00:12;;;;;;;12.03;4.10;;;10.20;99.90;;;;;;5059341;28;20394;-81
2022/10/02 04:03:00;;;;;;;15.13;4.63;;;10.20;99.90;;;;;;5058563;28;20456;-81
2022/10/02 04:05:54;;;;;;;5.70;3.67;;;10.30;99.90;;;;;;5058778;28;20389;-80
2022/10/02 04:08:50;;;;;;;9.33;4.50;;;10.40;99.90;;;;;;5059114;28;20512;-81
2022/10/02 04:11:43;;;;;;;4.53;3.77;;;10.50;99.90;;;;;;5059593;28;20422;-81
2022/10/02 04:14:40;;;;;;;4.67;3.90;;;10.50;99.90;;;;;;5069790;28;20386;-79
2022/10/02 04:17:37;;;;;;;4.63;3.77;;;10.60;99.90;;;;;;5057160;28;20397;-81
2022/10/02 04:20:30;;;;;;;4.03;3.50;;;10.50;99.90;;;;;;5059801;28;20751;-81
2022/10/02 04:23:28;;;;;;;4.03;3.73;;;10.70;99.90;;;;;;5043754;28;20394;-81
2022/10/02 04:26:18;;;;;;;9.10;4.20;;;10.70;99.90;;;;;;5059049;28;20405;-81
2022/10/02 04:29:20;;;;;;;3.70;3.40;;;10.80;99.90;;;;;;5059496;28;20457;-81
2022/10/02 04:32:21;;;;;;;4.80;3.87;;;10.90;99.90;;;;;;5057926;28;20481;-81
2022/10/02 04:35:14;;;;;;;4.80;4.40;;;10.90;99.90;;;;;;5059886;28;20389;-81
2022/10/02 04:38:25;;;;;;;6.90;3.70;;;11.00;99.90;;;;;;5059501;28;20389;-81
2022/10/02 04:41:29;;;;;;;6.53;5.00;;;11.00;99.90;;;;;;5059881;28;20390;-81
2022/10/02 04:44:36;;;;;;;4.03;3.10;;;11.20;99.90;;;;;;5050103;28;20429;-81
2022/10/02 04:47:52;;;;;;;4.10;3.70;;;11.40;99.90;;;;;;5059059;28;20449;-81
2022/10/02 04:50:49;;;;;;;4.70;3.27;;;11.60;99.90;;;;;;5053674;28;20382;-81
2022/10/02 04:53:45;;;;;;;5.07;3.87;;;11.60;99.90;;;;;;5059307;28;20498;-81
2022/10/02 04:57:00;;;;;;;13.23;4.77;;;11.70;99.90;;;;;;5058999;28;20453;-81
2022/10/02 05:00:05;;;;;;;3.90;3.60;;;11.70;99.90;;;;;;5058559;28;20478;-81
2022/10/02 05:03:27;;;;;;;11.60;4.80;;;11.80;99.90;;;;;;5058709;28;20449;-81
2022/10/02 05:06:38;;;;;;;5.37;3.90;;;11.80;99.90;;;;;;5052377;28;20444;-81
2022/10/02 05:09:50;;;;;;;6.57;3.57;;;11.90;99.90;;;;;;5062206;28;20437;-81
2022/10/02 05:12:56;;;;;;;20.13;4.03;;;12.00;99.90;;;;;;5062553;28;20428;-81
2022/10/02 05:16:01;;;;;;;15.40;4.40;;;12.00;99.90;;;;;;5062128;28;20370;-81
2022/10/02 05:19:16;;;;;;;13.03;5.03;;;12.10;99.90;;;;;;5061846;28;20882;-81
2022/10/02 05:22:36;;;;;;;4.83;4.17;;;12.10;99.90;;;;;;5038437;28;20714;-81
2022/10/02 05:25:50;;;;;;;5.07;3.83;;;12.20;99.90;;;;;;5041649;28;20406;-81
2022/10/02 05:28:53;;;;;;;7.80;3.53;;;12.20;99.90;;;;;;5042416;28;20537;-81
2022/10/02 05:32:06;;;;;;;4.33;2.67;;;12.20;99.90;;;;;;5042070;28;20395;-81
2022/10/02 05:35:08;;;;;;;4.10;3.40;;;12.30;99.90;;;;;;5042051;28;20383;-81
2022/10/02 05:38:32;;;;;;;5.93;3.57;;;12.30;99.90;;;;;;5041889;28;20395;-81
2022/10/02 05:41:35;;;;;;;3.10;2.80;;;12.30;99.90;;;;;;5042060;28;20483;-81
2022/10/02 05:44:40;;;;;;;6.43;2.87;;;12.40;99.90;;;;;;5042490;28;20898;-81
2022/10/02 05:47:39;;;;;;;5.13;2.90;;;12.40;99.90;;;;;;5042537;28;20446;-82
2022/10/02 05:50:29;;;;;;;7.20;2.90;;;12.40;99.90;;;;;;5042657;28;20406;-82
2022/10/02 05:53:33;;;;;;;4.80;3.50;;;12.40;99.90;;;;;;5042078;28;20764;-82
2022/10/02 05:56:28;;;;;;;10.20;4.37;;;12.40;99.90;;;;;;5042946;28;20445;-82
2022/10/02 05:59:25;;;;;;;7.40;2.73;;;12.50;99.90;;;;;;5042769;28;20383;-80
2022/10/02 06:02:27;;;;;;;4.33;3.10;;;12.50;99.90;;;;;;5042411;28;20543;-80
2022/10/02 06:05:17;;;;;;;9.57;3.60;;;12.60;99.90;;;;;;5042572;28;20410;-80
2022/10/02 06:08:04;;;;;;;5.00;3.00;;;12.50;99.90;;;;;;5042140;28;20443;-80
2022/10/02 06:10:53;;;;;;;2.30;2.07;;;12.50;99.90;;;;;;5041534;28;20402;-80
2022/10/02 06:13:51;;;;;;;5.93;2.80;;;12.60;99.90;;;;;;5042872;28;20415;-81
2022/10/02 06:16:51;;;;;;;6.03;3.47;;;12.60;99.90;;;;;;5041256;28;20744;-81
2022/10/02 06:19:57;;;;;;;7.30;3.13;;;12.70;99.90;;;;;;5041958;28;20477;-81
2022/10/02 06:22:49;;;;;;;4.20;3.80;;;12.70;99.90;;;;;;5041447;28;20415;-80
2022/10/02 06:25:57;;;;;;;4.50;2.90;;;12.70;99.90;;;;;;5042659;28;20391;-81
2022/10/02 06:28:49;;;;;;;12.50;2.57;;;12.70;99.90;;;;;;5041727;28;20449;-81
2022/10/02 06:31:50;;;;;;;8.97;3.17;;;12.80;99.90;;;;;;5043214;28;20433;-81
2022/10/02 06:34:34;;;;;;;7.97;2.60;;;12.80;99.90;;;;;;5052109;28;20423;-80
2022/10/02 06:37:33;;;;;;;16.33;3.70;;;12.90;99.90;;;;;;5044264;28;20450;-80
2022/10/02 06:40:56;;;;;;;5.27;2.87;;;12.90;99.90;;;;;;5059260;28;20403;-79
2022/10/02 06:43:57;;;;;;;13.53;3.87;;;12.90;99.90;;;;;;5056243;28;20399;-81
2022/10/02 06:47:14;;;;;;;8.63;3.03;;;12.90;99.90;;;;;;5040669;28;20395;-81
2022/10/02 06:50:18;;;;;;;4.30;3.23;;;13.00;99.90;;;;;;5040509;28;20529;-80
2022/10/02 06:53:36;;;;;;;6.03;3.30;;;13.00;99.90;;;;;;5042170;28;20447;-80
2022/10/02 06:56:44;;;;;;;3.20;2.87;;;13.10;99.90;;;;;;5040522;28;20414;-81
2022/10/02 06:59:58;;;;;;;6.87;3.20;;;13.10;99.90;;;;;;5041111;28;20379;-81
2022/10/02 07:03:08;;;;;;;6.80;3.00;;;13.10;99.90;;;;;;5040582;28;20457;-81
2022/10/02 07:06:14;;;;;;;5.03;2.73;;;13.20;99.90;;;;;;5041440;28;20386;-81
2022/10/02 07:09:28;;;;;;;6.47;3.10;;;13.20;99.90;;;;;;5039859;28;20527;-80
2022/10/02 07:12:31;;;;;;;4.87;3.53;;;13.30;99.90;;;;;;5040485;28;20564;-81
2022/10/02 07:15:42;;;;;;;5.60;3.90;;;13.30;99.90;;;;;;5042617;28;20758;-80
2022/10/02 07:18:56;;;;;;;6.47;2.90;;;13.30;99.90;;;;;;5044543;28;20860;-80
2022/10/02 07:22:00;;;;;;;9.40;3.70;;;13.40;99.90;;;;;;5042222;28;20387;-79
2022/10/02 07:25:06;;;;;;;10.57;3.17;;;13.40;99.90;;;;;;5045958;28;20391;-82
2022/10/02 07:28:07;;;;;;;5.53;2.80;;;13.40;99.90;;;;;;5040627;28;20457;-80
2022/10/02 07:31:11;;;;;;;5.43;2.90;;;13.50;99.90;;;;;;5040452;28;20528;-80
2022/10/02 07:34:20;;;;;;;16.07;4.17;;;13.50;99.90;;;;;;5039857;28;20891;-80
2022/10/02 07:37:26;;;;;;;5.00;2.97;;;13.50;99.90;;;;;;5039808;28;20449;-80
2022/10/02 07:40:41;;;;;;;6.90;3.00;;;13.50;99.90;;;;;;5043881;28;20375;-78
2022/10/02 07:43:56;;;;;;;4.87;2.80;;;13.50;99.90;;;;;;5045926;28;20410;-80
2022/10/02 07:47:06;;;;;;;12.50;4.43;;;13.50;99.90;;;;;;5039539;28;20383;-80
2022/10/02 07:50:02;;;;;;;6.10;2.70;;;13.60;99.90;;;;;;5039891;28;20394;-80
2022/10/02 07:53:11;;;;;;;7.87;2.77;;;13.60;99.90;;;;;;5038323;28;20407;-80
2022/10/02 07:55:57;;;;;;;3.40;2.90;;;13.60;99.90;;;;;;5038675;28;20406;-80
2022/10/02 07:58:49;;;;;;;4.03;2.67;;;13.60;99.90;;;;;;5024609;28;20394;-80
2022/10/02 08:01:39;;;;;;;5.20;2.87;;;13.60;99.90;;;;;;5037516;28;20450;-79
2022/10/02 08:04:29;;;;;;;6.90;3.27;;;13.60;99.90;;;;;;5039656;28;20891;-80
2022/10/02 08:07:13;;;;;;;2.90;2.60;;;13.60;99.90;;;;;;5038743;28;20468;-82
2022/10/02 08:10:05;;;;;;;5.23;3.53;;;13.50;99.90;;;;;;5039431;28;20387;-80
2022/10/02 08:12:59;;;;;;;7.97;4.57;;;13.50;99.90;;;;;;5038598;28;20460;-80
2022/10/02 08:15:47;;;;;;;6.67;4.50;;;13.60;99.90;;;;;;5038578;28;20475;-80
2022/10/02 08:18:37;;;;;;;6.10;4.33;;;13.60;99.90;;;;;;5039544;28;20395;-80
2022/10/02 08:21:24;;;;;;;4.80;2.90;;;13.70;99.90;;;;;;5038625;28;20445;-80
2022/10/02 08:24:30;;;;;;;2.97;2.73;;;13.70;99.90;;;;;;5038781;28;20410;-80
2022/10/02 08:27:26;;;;;;;3.93;2.37;;;13.60;99.90;;;;;;5038362;28;20445;-80
2022/10/02 08:30:13;;;;;;;8.73;4.63;;;13.70;99.90;;;;;;5038146;28;20390;-81
2022/10/02 08:32:57;;;;;;;4.17;3.77;;;13.70;99.90;;;;;;5039640;28;20717;-82
2022/10/02 08:35:59;;;;;;;4.30;3.57;;;13.80;99.90;;;;;;5039602;28;20391;-82
2022/10/02 08:38:50;;;;;;;2.97;2.77;;;13.80;99.90;;;;;;5039123;28;20394;-81
2022/10/02 08:42:14;;;;;;;3.03;2.63;;;13.70;99.90;;;;;;5042083;28;20755;-82
2022/10/02 08:45:26;;;;;;;4.50;2.70;;;13.80;99.90;;;;;;5041347;28;20469;-81
2022/10/02 08:48:41;;;;;;;3.73;3.40;;;13.70;99.90;;;;;;5041611;28;20799;-81
2022/10/02 08:51:56;;;;;;;6.03;2.97;;;13.70;99.90;;;;;;5042936;28;20410;-81
2022/10/02 08:54:59;;;;;;;3.53;2.67;;;13.80;99.90;;;;;;5042620;28;20886;-81
2022/10/02 08:58:15;;;;;;;5.60;2.67;;;13.80;99.90;;;;;;5041839;28;20958;-81
2022/10/02 09:01:31;;;;;;;5.50;2.90;;;13.80;99.90;;;;;;5040934;28;20395;-81
2022/10/02 09:04:44;;;;;;;3.10;2.37;;;13.80;99.90;;;;;;5041879;28;20411;-80
2022/10/02 09:08:07;;;;;;;11.33;3.30;;;13.80;99.90;;;;;;5042091;28;20434;-82
2022/10/02 09:11:18;;;;;;;3.23;2.10;;;13.70;99.90;;;;;;5041468;28;20375;-81
2022/10/02 09:14:37;;;;;;;5.27;2.53;;;13.80;99.90;;;;;;5042000;28;20415;-80
2022/10/02 09:17:47;;;;;;;5.43;3.37;;;13.80;99.90;;;;;;5041299;28;20419;-80
2022/10/02 09:20:46;;;;;;;4.67;2.60;;;13.70;99.90;;;;;;5040709;28;20450;-80
2022/10/02 09:24:01;;;;;;;4.00;1.83;;;13.70;99.90;;;;;;5042309;28;20946;-81
2022/10/02 09:27:05;;;;;;;3.50;1.90;;;13.70;99.90;;;;;;5041315;28;20457;-80
2022/10/02 09:30:10;;;;;;;2.50;2.10;;;13.60;99.90;;;;;;5040852;28;20962;-80
2022/10/02 09:33:21;;;;;;;4.53;2.30;;;13.60;99.90;;;;;;5041599;28;20445;-80
2022/10/02 09:36:39;;;;;;;3.23;2.47;;;13.60;99.90;;;;;;5041595;28;20461;-80
2022/10/02 09:39:51;;;;;;;4.50;2.07;;;13.60;99.90;;;;;;5041087;28;20946;-80
2022/10/02 09:43:07;;;;;;;4.27;1.80;;;13.60;99.90;;;;;;5041192;28;20451;-80
2022/10/02 09:46:18;;;;;;;1.80;1.70;;;13.60;99.90;;;;;;5041165;28;20434;-80
2022/10/02 09:49:27;;;;;;;4.80;2.70;;;13.70;99.90;;;;;;5042322;28;20501;-79
2022/10/02 09:52:41;;;;;;;3.63;2.03;;;13.70;99.90;;;;;;4996866;28;20442;-78
2022/10/02 09:56:04;;;;;;;4.93;2.27;;;13.70;99.90;;;;;;5025057;28;20436;-78
2022/10/02 09:59:23;;;;;;;4.10;2.50;;;13.60;99.90;;;;;;5004573;28;20408;-78
2022/10/02 10:02:27;;;;;;;2.60;2.30;;;13.60;99.90;;;;;;5019023;28;20471;-79
2022/10/02 10:05:34;;;;;;;4.80;2.00;;;13.60;99.90;;;;;;5019315;28;20462;-82
2022/10/02 10:08:59;;;;;;;3.57;2.63;;;13.60;99.90;;;;;;5019165;28;20439;-82
2022/10/02 10:12:07;;;;;;;2.77;2.53;;;13.70;99.90;;;;;;4999176;28;20481;-81
2022/10/02 10:15:18;;;;;;;4.60;2.80;;;13.50;99.90;;;;;;5018766;28;20383;-81
2022/10/02 10:18:35;;;;;;;3.30;3.00;;;13.50;99.90;;;;;;5018243;28;20474;-82
2022/10/02 10:21:48;;;;;;;7.90;2.80;;;13.60;99.90;;;;;;5018386;28;20451;-82
2022/10/02 10:25:01;;;;;;;3.97;2.50;;;13.70;99.90;;;;;;5039624;28;20434;-81
2022/10/02 10:28:11;;;;;;;4.90;3.83;;;13.90;99.90;;;;;;5040534;28;20853;-81
2022/10/02 10:31:26;;;;;;;2.50;2.30;;;13.90;99.90;;;;;;5039919;28;20735;-81
2022/10/02 10:34:45;;;;;;;4.53;2.50;;;13.80;99.90;;;;;;5040961;28;20719;-82
2022/10/02 10:41:30;;;;;;;2.17;1.97;;;14.00;99.90;;;;;;5039541;28;20438;-82
2022/10/02 10:44:50;;;;;;;5.83;3.00;;;14.00;99.90;;;;;;5030312;28;20460;-81
2022/10/02 10:47:57;;;;;;;9.03;2.60;;;14.00;99.90;;;;;;5040028;28;20443;-81
2022/10/02 10:51:03;;;;;;;2.47;2.27;;;14.10;99.90;;;;;;5026348;28;20410;-81
2022/10/02 10:54:11;;;;;;;3.03;2.70;;;14.10;99.90;;;;;;5039395;28;20387;-81
2022/10/02 10:57:03;;;;;;;6.03;2.40;;;14.10;99.90;;;;;;5038072;28;20446;-81
2022/10/02 11:00:02;;;;;;;2.90;1.90;;;14.20;99.90;;;;;;5040118;28;20382;-81
2022/10/02 11:03:11;;;;;;;2.90;2.30;;;14.20;99.90;;;;;;5039159;28;20441;-81
2022/10/02 11:06:16;;;;;;;5.10;3.20;;;14.20;99.90;;;;;;5039660;28;20405;-81
2022/10/02 11:09:28;;;;;;;9.73;3.70;;;14.30;99.90;;;;;;5048868;28;20445;-80
2022/10/02 11:12:38;;;;;;;2.90;2.27;;;14.20;99.90;;;;;;5040901;28;20804;-81
2022/10/02 11:15:41;;;;;;;8.00;4.10;;;14.30;99.90;;;;;;5038165;28;20383;-80
2022/10/02 11:18:53;;;;;;;1.80;1.70;;;14.10;99.90;;;;;;5040471;28;20760;-81
2022/10/02 11:21:57;;;;;;;1.87;1.63;;;14.20;99.90;;;;;;4998321;28;20777;-82
2022/10/02 11:25:12;;;;;;;4.10;1.80;;;14.30;99.90;;;;;;4997941;28;20416;-81
2022/10/02 11:28:22;;;;;;;4.20;2.13;;;14.40;99.90;;;;;;4998446;28;20456;-80
2022/10/02 11:31:28;;;;;;;3.13;1.97;;;14.40;99.90;;;;;;4997025;28;20424;-80
2022/10/02 11:34:43;;;;;;;3.77;1.80;;;14.40;99.90;;;;;;4999192;28;20385;-80
2022/10/02 11:37:51;;;;;;;2.00;1.60;;;14.40;99.90;;;;;;4999213;28;20540;-82
2022/10/02 11:40:54;;;;;;;1.57;1.47;;;14.40;99.90;;;;;;4998221;28;20400;-80
2022/10/02 11:43:58;;;;;;;3.40;3.10;;;14.40;99.90;;;;;;4969506;28;20404;-80
2022/10/02 11:47:17;;;;;;;4.27;1.70;;;14.30;99.90;;;;;;4998052;28;20570;-81
2022/10/02 11:50:32;;;;;;;2.20;1.87;;;14.20;99.90;;;;;;4997747;28;20612;-81
2022/10/02 11:53:28;;;;;;;1.73;1.63;;;14.20;99.90;;;;;;5031267;28;20391;-80
2022/10/02 11:56:32;;;;;;;1.40;1.30;;;14.20;99.90;;;;;;5038201;28;20445;-80
2022/10/02 11:59:41;;;;;;;1.53;1.43;;;14.10;99.90;;;;;;5038538;28;20389;-80
2022/10/02 12:02:37;;;;;;;1.40;1.30;;;14.20;99.90;;;;;;5010974;28;20825;-81
2022/10/02 12:05:43;;;;;;;2.30;2.10;;;14.20;99.90;;;;;;5038399;28;20407;-80
2022/10/02 12:08:57;;;;;;;3.43;2.50;;;14.30;99.90;;;;;;5038856;28;20442;-82
2022/10/02 12:11:53;;;;;;;5.43;2.03;;;14.30;99.90;;;;;;5038861;28;20386;-82
2022/10/02 12:14:57;;;;;;;2.30;1.60;;;14.20;99.90;;;;;;5037259;28;20905;-82
2022/10/02 12:18:07;;;;;;;2.60;2.10;;;14.20;99.90;;;;;;5041177;28;20302;-80
2022/10/02 12:28:20;;;;;;;1.90;1.67;;;14.20;99.90;;;;;;5041643;28;20450;-81
2022/10/02 12:31:29;;;;;;;3.17;2.10;;;14.20;99.90;;;;;;5042978;28;20398;-80
2022/10/02 12:34:34;;;;;;;1.90;1.80;;;14.10;99.90;;;;;;5043150;28;20387;-81
2022/10/02 12:37:53;;;;;;;2.20;2.00;;;14.00;99.90;;;;;;5042552;28;20394;-81
2022/10/02 12:41:06;;;;;;;2.20;2.00;;;14.00;99.90;;;;;;5042827;28;20402;-80
2022/10/02 12:44:26;;;;;;;3.43;2.20;;;14.10;99.90;;;;;;5040066;28;20829;-79
2022/10/02 12:47:34;;;;;;;1.90;1.80;;;14.10;99.90;;;;;;5041403;28;20414;-80
2022/10/02 12:50:52;;;;;;;1.90;1.80;;;13.90;99.90;;;;;;5042008;28;20382;-81
2022/10/02 12:54:07;;;;;;;2.10;1.90;;;14.00;99.90;;;;;;5043146;28;20441;-80
2022/10/02 13:00:24;;;;;;;2.00;1.83;;;14.20;99.90;;;;;;5043543;28;20421;-80
2022/10/02 13:03:34;;;;;;;3.60;2.60;;;14.30;99.90;;;;;;5042882;28;20954;-80
2022/10/02 13:06:51;;;;;;;2.03;1.83;;;14.30;99.90;;;;;;5043391;28;20390;-80
2022/10/02 13:09:54;;;;;;;1.50;1.40;;;14.40;99.90;;;;;;5042960;28;20411;-82
2022/10/02 13:12:56;;;;;;;1.80;1.70;;;14.30;99.90;;;;;;5042456;28;20395;-82
2022/10/02 13:16:01;;;;;;;2.13;1.93;;;14.30;99.90;;;;;;5042632;28;20383;-82
2022/10/02 13:19:10;;;;;;;2.00;1.90;;;14.30;99.90;;;;;;5042137;28;20470;-81
2022/10/02 13:22:13;;;;;;;1.97;1.87;;;14.20;99.90;;;;;;5027088;28;20470;-81
2022/10/02 13:25:23;;;;;;;2.33;1.90;;;14.20;99.90;;;;;;5042484;28;20482;-81
2022/10/02 13:28:25;;;;;;;2.57;2.03;;;14.30;99.90;;;;;;5041135;28;20578;-82
2022/10/02 13:31:45;;;;;;;2.10;1.90;;;14.30;99.90;;;;;;5043788;28;20449;-81
2022/10/02 13:34:50;;;;;;;1.60;1.50;;;14.40;99.90;;;;;;5042565;28;20409;-82
2022/10/02 13:38:07;;;;;;;2.03;1.90;;;14.30;99.90;;;;;;5041939;28;20423;-82
2022/10/02 13:41:12;;;;;;;1.93;1.83;;;14.30;99.90;;;;;;5031358;28;20452;-83
2022/10/02 13:44:11;;;;;;;5.37;3.40;;;14.30;99.90;;;;;;5040733;28;20402;-80
2022/10/02 13:47:21;;;;;;;2.40;2.20;;;14.30;99.90;;;;;;5040808;28;20782;-80
2022/10/02 13:50:41;;;;;;;2.20;1.87;;;14.20;99.90;;;;;;5040026;28;20414;-80
2022/10/02 13:53:38;;;;;;;2.07;1.73;;;14.20;99.90;;;;;;5039476;28;20680;-80
2022/10/02 13:56:47;;;;;;;3.20;3.00;;;14.20;99.90;;;;;;5038852;28;20446;-79
2022/10/02 13:59:48;;;;;;;2.07;1.77;;;14.30;99.90;;;;;;5040967;28;20522;-81
2022/10/02 14:02:45;;;;;;;1.90;1.80;;;14.30;99.90;;;;;;5040366;28;20470;-81
2022/10/02 14:05:47;;;;;;;1.80;1.70;;;14.30;99.90;;;;;;5039985;28;20482;-81
2022/10/02 14:08:56;;;;;;;3.37;2.10;;;14.40;99.90;;;;;;5041280;28;20442;-81
2022/10/02 14:11:57;;;;;;;1.60;1.50;;;14.40;99.90;;;;;;5041017;28;20378;-81
2022/10/02 14:15:05;;;;;;;1.80;1.70;;;14.50;99.90;;;;;;5041529;28;20402;-81
2022/10/02 14:18:17;;;;;;;4.20;3.13;;;14.50;99.90;;;;;;5039426;28;20734;-81
2022/10/02 14:21:16;;;;;;;2.13;1.93;;;14.50;99.90;;;;;;5039758;28;20387;-81
2022/10/02 14:24:58;;;;;;;2.60;2.40;;;14.50;99.90;;;;;;5013414;28;20701;-82
2022/10/02 14:27:56;;;;;;;2.10;1.90;;;14.50;99.90;;;;;;5040496;28;21006;-80
2022/10/02 14:30:59;;;;;;;3.10;1.93;;;14.40;99.90;;;;;;5040909;28;20817;-81
2022/10/02 14:34:15;;;;;;;1.70;1.60;;;14.50;99.90;;;;;;5041688;28;20394;-81
2022/10/02 14:37:30;;;;;;;3.00;1.60;;;14.40;99.90;;;;;;5040547;28;20903;-80
2022/10/02 14:40:18;;;;;;;3.07;1.50;;;14.40;99.90;;;;;;5039797;28;20395;-80
2022/10/02 14:43:41;;;;;;;1.70;1.53;;;14.40;99.90;;;;;;5040310;28;20799;-80
2022/10/02 14:46:39;;;;;;;1.50;1.40;;;14.40;99.90;;;;;;5040778;28;20395;-81
2022/10/02 14:49:57;;;;;;;5.53;2.07;;;14.40;99.90;;;;;;5040063;28;20447;-81
2022/10/02 14:53:06;;;;;;;1.77;1.33;;;14.40;99.90;;;;;;5039760;28;20430;-81
2022/10/02 14:56:21;;;;;;;2.40;1.40;;;14.40;99.90;;;;;;5038695;28;20403;-81
2022/10/02 14:59:26;;;;;;;3.03;2.83;;;14.30;99.90;;;;;;5049624;28;20457;-81
2022/10/02 15:02:37;;;;;;;1.60;1.50;;;14.30;99.90;;;;;;5038558;28;20466;-80
2022/10/02 15:05:57;;;;;;;1.90;1.80;;;14.20;99.90;;;;;;5040237;28;20395;-82
2022/10/02 15:08:52;;;;;;;4.70;2.40;;;14.20;99.90;;;;;;5040077;28;20454;-81
2022/10/02 15:11:53;;;;;;;10.57;2.00;;;14.10;99.90;;;;;;5039518;28;20465;-81
2022/10/02 15:14:50;;;;;;;3.93;2.70;;;14.00;99.90;;;;;;5039893;28;20391;-81
2022/10/02 15:17:55;;;;;;;1.97;1.83;;;14.10;99.90;;;;;;5039832;28;20399;-81
2022/10/02 15:20:58;;;;;;;4.53;2.00;;;14.10;99.90;;;;;;5046260;28;20437;-80
2022/10/02 15:23:46;;;;;;;3.23;2.43;;;14.10;99.90;;;;;;5059677;28;20393;-80
2022/10/02 15:26:53;;;;;;;3.00;2.70;;;14.20;99.90;;;;;;5060057;28;20473;-80
2022/10/02 15:29:56;;;;;;;4.53;2.70;;;14.20;99.90;;;;;;5057328;28;20485;-81
2022/10/02 15:33:12;;;;;;;2.40;2.20;;;14.20;99.90;;;;;;5063388;28;20405;-78
2022/10/02 15:36:17;;;;;;;3.30;2.77;;;14.20;99.90;;;;;;5034074;28;20463;-79
2022/10/02 15:39:37;;;;;;;3.10;2.30;;;14.20;99.90;;;;;;5048101;28;20405;-79
2022/10/02 15:42:47;;;;;;;2.60;2.40;;;14.20;99.90;;;;;;5046657;28;20439;-81
2022/10/02 15:45:56;;;;;;;3.17;2.97;;;14.20;99.90;;;;;;5037895;28;20414;-80
2022/10/02 15:49:03;;;;;;;1.93;1.73;;;14.30;99.90;;;;;;5037602;28;20552;-81
2022/10/02 15:52:01;;;;;;;2.00;1.60;;;14.20;99.90;;;;;;5037931;28;20517;-81
2022/10/02 15:55:06;;;;;;;1.80;1.70;;;14.20;99.90;;;;;;5036737;28;20398;-79
2022/10/02 15:58:19;;;;;;;1.67;1.57;;;14.10;99.90;;;;;;5035904;28;20477;-81
2022/10/02 16:01:30;;;;;;;1.87;1.77;;;14.10;99.90;;;;;;5036633;28;20425;-81
2022/10/02 16:04:37;;;;;;;3.27;1.80;;;14.10;99.90;;;;;;5035275;28;20399;-81